Terminal Aerodrome Forecast
Issued by NWS

Current Version | Previous Version | Text Only | Print | Product List | Glossary Off
Versions: 1 2 3 4 5 6 7 8 9 10 11 12 13 14 15 16 17 18 19 20 21 22 23 24 25

000
FTUS41 KRLX 221131
TAFCKB
TAF
KCKB 221131Z 2212/2312 23005KT 6SM BR SKC
     FM221230 23005KT P6SM SKC
     FM221800 24011G17KT P6SM BKN080
     FM222100 27011G17KT P6SM BKN040
     FM230000 29007KT P6SM SCT040
     FM230400 02004KT P6SM FEW250=

USA.gov is the U.S. government's official web portal to all federal, state and local government web resources and services.